createdAt,value
2019-01-05T00:00:03.965Z,7.80
2019-01-05T00:02:39.841Z,7.43
2019-01-05T00:05:09.721Z,8.50
2019-01-05T00:07:45.496Z,5.80
2019-01-05T00:10:24.318Z,6.90
2019-01-05T00:12:56.850Z,5.97
2019-01-05T00:15:33.057Z,5.37
2019-01-05T00:18:03.212Z,6.70
2019-01-05T00:20:49.292Z,6.67
2019-01-05T00:23:22.118Z,5.50
2019-01-05T00:25:51.999Z,4.97
2019-01-05T00:28:31.170Z,4.07
2019-01-05T00:31:01.057Z,6.27
2019-01-05T00:33:31.101Z,4.40
2019-01-05T00:36:07.206Z,5.10
2019-01-05T00:38:53.594Z,7.13
2019-01-05T00:41:35.613Z,5.13
2019-01-05T00:44:14.818Z,5.37
2019-01-05T00:46:53.530Z,6.13
2019-01-05T00:49:29.173Z,4.63
2019-01-05T00:51:59.242Z,6.43
2019-01-05T00:54:29.705Z,6.73
2019-01-05T00:57:17.586Z,4.63
2019-01-05T01:00:03.969Z,7.40
2019-01-05T01:02:33.853Z,5.33
2019-01-05T01:05:03.729Z,6.70
2019-01-05T01:07:49.805Z,3.80
2019-01-05T01:10:19.673Z,3.73
2019-01-05T01:12:49.566Z,4.20
2019-01-05T01:15:19.426Z,4.03
2019-01-05T01:17:52.261Z,4.57
2019-01-05T01:20:24.844Z,4.87
2019-01-05T01:22:54.731Z,6.27
2019-01-05T01:25:36.625Z,9.27
2019-01-05T01:28:21.598Z,6.17
2019-01-05T01:30:54.425Z,4.57
2019-01-05T01:33:24.477Z,7.53
2019-01-05T01:35:57.409Z,6.93
2019-01-05T01:38:29.930Z,5.20
2019-01-05T01:41:15.969Z,3.73
2019-01-05T01:43:51.793Z,3.20
2019-01-05T01:46:21.685Z,3.83
2019-01-05T01:48:51.731Z,4.77
2019-01-05T01:51:39.677Z,8.00
2019-01-05T01:54:26.013Z,5.70
2019-01-05T01:57:07.789Z,4.07
2019-01-05T01:59:40.573Z,2.07
2019-01-05T02:02:13.148Z,2.73
2019-01-05T02:04:55.022Z,4.43
2019-01-05T02:07:34.049Z,4.87
2019-01-05T02:10:20.461Z,3.07
2019-01-05T02:12:56.514Z,3.23
2019-01-05T02:15:42.570Z,2.70
2019-01-05T02:18:27.626Z,2.47
2019-01-05T02:25:11.376Z,3.17
2019-01-05T02:27:53.178Z,2.77
2019-01-05T02:30:42.766Z,3.67
2019-01-05T02:33:34.922Z,2.37
2019-01-05T02:36:17.286Z,1.93
2019-01-05T02:39:23.374Z,2.67
2019-01-05T02:42:05.110Z,3.70
2019-01-05T02:45:15.489Z,3.30
2019-01-05T02:48:12.977Z,2.10
2019-01-05T02:51:36.085Z,4.67
2019-01-05T02:54:33.126Z,4.73
2019-01-05T02:57:30.321Z,2.93
2019-01-05T03:00:15.251Z,2.47
2019-01-05T03:03:20.160Z,2.50
2019-01-05T03:06:25.038Z,2.67
2019-01-05T03:09:34.402Z,2.80
2019-01-05T03:12:13.533Z,3.47
2019-01-05T03:15:15.672Z,2.77
2019-01-05T03:18:03.350Z,24.37
2019-01-05T03:21:16.949Z,3.87
2019-01-05T03:24:24.660Z,3.17
2019-01-05T03:27:06.113Z,3.07
2019-01-05T03:29:58.711Z,3.27
2019-01-05T03:32:37.527Z,3.70
2019-01-05T03:35:36.205Z,2.23
2019-01-05T03:38:32.925Z,1.83
2019-01-05T03:41:28.549Z,3.57
2019-01-05T03:44:47.282Z,2.27
2019-01-05T03:47:51.765Z,2.97
2019-01-05T03:50:56.447Z,2.57
2019-01-05T03:54:04.373Z,1.73
2019-01-05T03:57:13.726Z,3.87
2019-01-05T03:59:58.226Z,3.10
2019-01-05T04:02:56.461Z,2.57
2019-01-05T04:05:44.287Z,7.13
2019-01-05T04:08:53.139Z,2.23
2019-01-05T04:11:47.402Z,2.80
2019-01-05T04:14:40.959Z,4.17
2019-01-05T04:17:42.596Z,4.27
2019-01-05T04:20:18.407Z,3.27
2019-01-05T04:23:32.382Z,2.67
2019-01-05T04:26:53.836Z,2.60
2019-01-05T04:29:51.081Z,1.37
2019-01-05T04:33:01.712Z,3.40
2019-01-05T04:36:06.501Z,3.30
2019-01-05T04:39:18.718Z,1.63
2019-01-05T04:42:23.320Z,1.60
2019-01-05T04:44:56.446Z,2.20
2019-01-05T04:47:58.026Z,2.93
2019-01-05T04:50:50.583Z,1.93
2019-01-05T04:53:35.694Z,2.67
2019-01-05T04:56:45.397Z,1.60
2019-01-05T04:59:39.849Z,3.57
2019-01-05T05:02:18.561Z,2.60
2019-01-05T05:05:19.344Z,2.87
2019-01-05T05:08:13.186Z,3.43
2019-01-05T05:11:04.562Z,1.70
2019-01-05T05:14:15.181Z,3.37
2019-01-05T05:16:51.082Z,3.40
2019-01-05T05:19:46.235Z,2.77
2019-01-05T05:22:39.759Z,1.83
2019-01-05T05:25:41.689Z,2.23
2019-01-05T05:28:42.831Z,1.73
2019-01-05T05:31:41.468Z,2.13
2019-01-05T05:34:41.541Z,1.73
2019-01-05T05:37:50.973Z,3.63
2019-01-05T05:40:38.771Z,1.73
2019-01-05T05:43:46.682Z,1.57
2019-01-05T05:46:37.877Z,3.07
2019-01-05T05:49:38.333Z,2.57
2019-01-05T05:52:17.363Z,3.13
2019-01-05T05:55:25.394Z,3.13
2019-01-05T05:58:22.122Z,3.20
2019-01-05T06:01:10.166Z,1.73
2019-01-05T06:03:57.730Z,2.20
2019-01-05T06:06:39.570Z,2.33
2019-01-05T06:09:15.589Z,3.27
2019-01-05T06:12:09.221Z,3.57
2019-01-05T06:14:57.429Z,1.90
2019-01-05T06:17:51.476Z,1.37
2019-01-05T06:20:48.109Z,3.17
2019-01-05T06:23:49.917Z,1.27
2019-01-05T06:26:44.010Z,1.37
2019-01-05T06:29:28.846Z,3.20
2019-01-05T06:32:44.312Z,3.87
2019-01-05T06:36:07.242Z,1.87
2019-01-05T06:38:52.338Z,1.13
2019-01-05T06:41:47.805Z,3.47
2019-01-05T06:44:51.206Z,2.50
2019-01-05T06:47:53.070Z,1.90
2019-01-05T06:50:35.293Z,3.10
2019-01-05T06:53:41.559Z,2.17
2019-01-05T06:57:00.313Z,2.20
2019-01-05T07:00:22.255Z,3.60
2019-01-05T07:03:29.193Z,1.03
2019-01-05T07:06:24.698Z,3.63
2019-01-05T07:09:41.793Z,0.70
2019-01-05T07:12:43.214Z,1.47
2019-01-05T07:15:40.761Z,1.57
2019-01-05T07:18:25.638Z,2.93
2019-01-05T07:21:20.349Z,1.53
2019-01-05T07:24:31.722Z,1.87
2019-01-05T07:27:42.878Z,1.40
2019-01-05T07:31:03.274Z,1.83
2019-01-05T07:33:56.001Z,1.27
2019-01-05T07:36:51.702Z,3.33
2019-01-05T07:39:29.965Z,1.53
2019-01-05T07:42:49.998Z,1.50
2019-01-05T07:45:50.209Z,2.20
2019-01-05T07:49:14.655Z,2.30
2019-01-05T07:52:33.394Z,3.07
2019-01-05T07:55:24.029Z,1.27
2019-01-05T07:58:15.465Z,2.03
2019-01-05T08:01:24.074Z,1.63
2019-01-05T08:04:13.858Z,0.97
2019-01-05T08:07:20.006Z,3.50
2019-01-05T08:10:12.869Z,1.73
2019-01-05T08:13:20.404Z,1.07
2019-01-05T08:15:59.305Z,2.13
2019-01-05T08:19:07.585Z,1.73
2019-01-05T08:22:06.327Z,1.90
2019-01-05T08:24:51.394Z,2.00
2019-01-05T08:27:30.442Z,1.63
2019-01-05T08:30:32.398Z,0.80
2019-01-05T08:33:39.832Z,1.63
2019-01-05T08:36:41.105Z,1.10
2019-01-05T08:39:45.465Z,2.00
2019-01-05T08:43:00.426Z,0.97
2019-01-05T08:46:06.949Z,3.63
2019-01-05T08:49:08.786Z,1.43
2019-01-05T08:51:59.466Z,4.13
2019-01-05T08:54:44.787Z,2.13
2019-01-05T08:57:50.946Z,3.53
2019-01-05T09:00:51.481Z,4.63
2019-01-05T09:03:36.441Z,6.47
2019-01-05T09:06:23.690Z,10.70
2019-01-05T09:09:26.569Z,10.03
2019-01-05T09:12:18.793Z,8.87
2019-01-05T09:15:25.426Z,7.13
2019-01-05T09:18:10.466Z,5.03
2019-01-05T09:21:10.242Z,9.37
2019-01-05T09:24:24.301Z,6.03
2019-01-05T09:27:17.557Z,6.73
2019-01-05T09:30:09.986Z,5.37
2019-01-05T09:33:12.109Z,3.07
2019-01-05T09:36:07.571Z,4.60
2019-01-05T09:39:06.226Z,4.03
2019-01-05T09:42:05.205Z,5.80
2019-01-05T09:45:15.707Z,3.47
2019-01-05T09:48:17.653Z,18.40
2019-01-05T09:51:11.037Z,6.00
2019-01-05T09:54:21.938Z,9.70
2019-01-05T09:57:44.525Z,12.30
2019-01-05T10:00:58.841Z,12.83
2019-01-05T10:03:56.030Z,12.03
2019-01-05T10:06:58.760Z,12.60
2019-01-05T10:10:01.462Z,12.93
2019-01-05T10:12:48.837Z,11.13
2019-01-05T10:15:52.209Z,9.30
2019-01-05T10:18:55.365Z,11.77
2019-01-05T10:22:04.706Z,5.47
2019-01-05T10:25:28.310Z,7.20
2019-01-05T10:28:13.112Z,4.53
2019-01-05T10:30:51.945Z,7.53
2019-01-05T10:33:56.266Z,12.85
2019-01-05T10:36:54.789Z,10.43
2019-01-05T10:39:55.025Z,13.43
2019-01-05T10:42:47.810Z,24.40
2019-01-05T10:45:51.329Z,12.13
2019-01-05T10:48:58.761Z,15.87
2019-01-05T10:51:52.737Z,10.63
2019-01-05T10:54:49.861Z,12.70
2019-01-05T10:57:51.450Z,13.60
2019-01-05T11:00:56.146Z,9.47
2019-01-05T11:04:03.872Z,11.20
2019-01-05T11:07:04.050Z,9.47
2019-01-05T11:09:51.629Z,11.70
2019-01-05T11:13:09.010Z,8.27
2019-01-05T11:16:17.012Z,14.70
2019-01-05T11:19:05.005Z,4.50
2019-01-05T11:22:11.311Z,6.23
2019-01-05T11:25:20.354Z,8.37
2019-01-05T11:28:26.738Z,9.07
2019-01-05T11:31:24.693Z,8.97
2019-01-05T11:34:17.162Z,9.23
2019-01-05T11:37:02.445Z,7.83
2019-01-05T11:39:44.313Z,13.40
2019-01-05T11:42:31.982Z,6.83
2019-01-05T11:45:47.390Z,8.53
2019-01-05T11:49:00.061Z,7.03
2019-01-05T11:52:07.636Z,8.40
2019-01-05T11:55:11.407Z,10.60
2019-01-05T11:58:22.359Z,8.40
2019-01-05T12:01:06.213Z,6.77
2019-01-05T12:04:20.029Z,8.23
2019-01-05T12:07:07.814Z,3.90
2019-01-05T12:10:12.450Z,7.13
2019-01-05T12:13:08.117Z,11.20
2019-01-05T12:16:02.172Z,13.10
2019-01-05T12:19:20.709Z,15.10
2019-01-05T12:22:16.634Z,8.33
2019-01-05T12:25:38.510Z,11.43
2019-01-05T12:28:36.604Z,11.17
2019-01-05T12:31:27.298Z,12.57
2019-01-05T12:34:41.197Z,12.70
2019-01-05T12:37:19.826Z,15.87
2019-01-05T12:40:24.297Z,13.67
2019-01-05T12:43:19.657Z,15.20
2019-01-05T12:46:24.931Z,12.13
2019-01-05T12:49:14.317Z,20.17
2019-01-05T12:52:01.866Z,12.43
2019-01-05T12:55:09.685Z,14.17
2019-01-05T12:58:22.034Z,17.53
2019-01-05T13:01:29.718Z,15.37
2019-01-05T13:04:26.888Z,18.93
2019-01-05T13:07:34.474Z,26.53
2019-01-05T13:10:44.265Z,18.37
2019-01-05T13:13:39.696Z,12.13
2019-01-05T13:16:44.327Z,17.37
2019-01-05T13:19:53.285Z,17.73
2019-01-05T13:22:45.002Z,18.23
2019-01-05T13:25:33.408Z,13.53
2019-01-05T13:28:21.369Z,32.63
2019-01-05T13:31:03.161Z,19.03
2019-01-05T13:33:58.789Z,15.07
2019-01-05T13:37:03.678Z,14.00
2019-01-05T13:39:42.077Z,15.07
2019-01-05T13:42:36.430Z,15.57
2019-01-05T13:45:39.798Z,15.03
2019-01-05T13:48:17.909Z,12.67
2019-01-05T13:51:06.086Z,16.07
2019-01-05T13:53:42.230Z,13.33
2019-01-05T13:56:24.441Z,28.13
2019-01-05T13:58:57.138Z,12.20
2019-01-05T14:01:43.666Z,18.53
2019-01-05T14:04:19.510Z,14.17
2019-01-05T14:06:55.338Z,16.30
2019-01-05T14:09:43.317Z,10.80
2019-01-05T14:12:25.345Z,10.63
2019-01-05T14:14:58.246Z,8.77
2019-01-05T14:17:28.113Z,9.93
2019-01-05T14:19:57.993Z,13.77
2019-01-05T14:22:27.869Z,11.37
2019-01-05T14:25:00.723Z,10.33
2019-01-05T14:27:30.581Z,11.23
2019-01-05T14:30:00.465Z,13.90
2019-01-05T14:32:30.357Z,9.67
2019-01-05T14:35:06.450Z,12.00
2019-01-05T14:37:36.328Z,18.87
2019-01-05T14:40:17.201Z,17.33
2019-01-05T14:42:56.213Z,12.40
2019-01-05T14:45:34.868Z,15.13
2019-01-05T14:48:19.693Z,11.53
2019-01-05T14:50:55.425Z,14.23
2019-01-05T14:53:41.507Z,9.43
2019-01-05T14:56:20.486Z,13.37
2019-01-05T14:58:53.306Z,12.17
2019-01-05T15:01:28.921Z,16.73
2019-01-05T15:04:08.214Z,14.50
2019-01-05T15:06:38.107Z,16.17
2019-01-05T15:09:11.610Z,11.17
2019-01-05T15:11:57.697Z,13.60
2019-01-05T15:14:44.138Z,11.17
2019-01-05T15:17:32.393Z,13.20
2019-01-05T15:20:05.460Z,11.57
2019-01-05T15:22:35.330Z,9.90
2019-01-05T15:25:11.462Z,12.37
2019-01-05T15:27:58.230Z,10.60
2019-01-05T15:30:34.357Z,11.93
2019-01-05T15:33:20.561Z,11.33
2019-01-05T15:36:08.766Z,7.53
2019-01-05T15:38:54.942Z,10.90
2019-01-05T15:41:27.865Z,13.30
2019-01-05T15:44:14.305Z,11.10
2019-01-05T15:47:00.634Z,9.87
2019-01-05T15:49:47.233Z,10.73
2019-01-05T15:52:33.138Z,15.63
2019-01-05T15:55:18.277Z,11.90
2019-01-05T15:58:04.237Z,11.33
2019-01-05T16:00:34.128Z,17.73
2019-01-05T16:03:13.518Z,12.03
2019-01-05T16:05:55.330Z,13.73
2019-01-05T16:08:37.445Z,11.53
2019-01-05T16:11:19.753Z,14.90
2019-01-05T16:13:58.594Z,34.87
2019-01-05T16:16:28.494Z,22.97
2019-01-05T16:19:07.447Z,14.07
2019-01-05T16:21:40.058Z,11.77
2019-01-05T16:24:09.953Z,13.70
2019-01-05T16:26:39.829Z,9.43
2019-01-05T16:29:09.702Z,10.67
2019-01-05T16:31:39.830Z,13.00
2019-01-05T16:34:12.395Z,14.07
2019-01-05T16:36:57.577Z,9.87
2019-01-05T16:39:43.984Z,12.57
2019-01-05T16:42:16.838Z,10.70
2019-01-05T16:45:02.991Z,12.17
2019-01-05T16:47:49.445Z,10.20
2019-01-05T16:50:31.626Z,10.23
2019-01-05T16:53:18.102Z,10.67
2019-01-05T16:56:04.425Z,12.37
2019-01-05T16:58:50.908Z,14.70
2019-01-05T17:01:39.074Z,9.63
2019-01-05T17:04:14.854Z,15.50
2019-01-05T17:06:53.845Z,10.57
2019-01-05T17:09:26.379Z,9.00
2019-01-05T17:11:56.263Z,16.53
2019-01-05T17:14:41.386Z,11.37
2019-01-05T17:17:14.217Z,13.37
2019-01-05T17:20:02.398Z,9.80
2019-01-05T17:22:34.722Z,10.00
2019-01-05T17:25:21.045Z,10.30
2019-01-05T17:27:50.933Z,7.33
2019-01-05T17:30:32.829Z,12.47
2019-01-05T17:33:08.688Z,9.73
2019-01-05T17:35:44.514Z,12.17
2019-01-05T17:38:17.102Z,9.50
2019-01-05T17:40:53.003Z,9.07
2019-01-05T17:43:22.873Z,12.13
2019-01-05T17:46:05.083Z,11.93
2019-01-05T17:48:44.017Z,12.83
2019-01-05T17:51:29.712Z,9.67
2019-01-05T17:54:05.487Z,11.20
2019-01-05T17:56:41.290Z,7.40
2019-01-05T17:59:20.432Z,10.70
2019-01-05T18:01:56.337Z,13.17
2019-01-05T18:04:35.293Z,7.53
2019-01-05T18:07:21.501Z,11.83
2019-01-05T18:09:54.493Z,9.20
2019-01-05T18:12:33.526Z,10.30
2019-01-05T18:15:10.107Z,12.57
2019-01-05T18:17:40.006Z,9.20
2019-01-05T18:20:09.940Z,8.57
2019-01-05T18:22:56.476Z,9.33
2019-01-05T18:25:32.527Z,8.20
2019-01-05T18:28:14.692Z,7.97
2019-01-05T18:31:02.151Z,8.57
2019-01-05T18:33:38.009Z,10.63
2019-01-05T18:36:24.203Z,9.57
2019-01-05T18:38:57.026Z,8.63
2019-01-05T18:41:42.661Z,9.50
2019-01-05T18:44:18.785Z,7.50
2019-01-05T18:46:51.491Z,7.87
2019-01-05T18:49:27.386Z,6.87
2019-01-05T18:51:59.745Z,10.63
2019-01-05T18:54:45.938Z,9.03
2019-01-05T18:57:19.021Z,7.50
2019-01-05T18:59:57.913Z,7.03
2019-01-05T19:02:40.070Z,7.47
2019-01-05T19:05:26.275Z,7.27
2019-01-05T19:08:02.421Z,8.73
2019-01-05T19:10:48.777Z,7.53
2019-01-05T19:13:23.163Z,7.43
2019-01-05T19:15:53.283Z,8.77
2019-01-05T19:18:29.244Z,8.33
2019-01-05T19:21:01.943Z,8.00
2019-01-05T19:23:34.586Z,7.30
2019-01-05T19:26:10.170Z,7.17
2019-01-05T19:28:50.014Z,7.57
2019-01-05T19:31:36.053Z,9.53
2019-01-05T19:34:11.989Z,8.23
2019-01-05T19:36:56.969Z,9.23
2019-01-05T19:39:44.193Z,7.37
2019-01-05T19:42:30.565Z,7.50
2019-01-05T19:45:15.742Z,7.27
2019-01-05T19:47:48.743Z,8.70
2019-01-05T19:50:27.849Z,7.20
2019-01-05T19:53:07.013Z,5.60
2019-01-05T19:55:53.182Z,6.03
2019-01-05T19:58:39.526Z,6.17
2019-01-05T20:01:17.846Z,5.77
2019-01-05T20:04:03.926Z,7.53
2019-01-05T20:06:42.945Z,7.53
2019-01-05T20:09:31.058Z,8.20
2019-01-05T20:12:00.930Z,8.47
2019-01-05T20:14:36.729Z,7.67
2019-01-05T20:17:12.290Z,6.17
2019-01-05T20:19:42.198Z,6.70
2019-01-05T20:22:20.841Z,7.37
2019-01-05T20:24:50.741Z,6.47
2019-01-05T20:27:20.614Z,7.10
2019-01-05T20:29:50.498Z,6.43
2019-01-05T20:32:29.236Z,6.43
2019-01-05T20:35:17.434Z,7.87
2019-01-05T20:38:03.603Z,6.60
2019-01-05T20:40:49.474Z,6.60
2019-01-05T20:43:19.344Z,7.33
2019-01-05T20:45:58.225Z,7.47
2019-01-05T20:48:44.786Z,7.83
2019-01-05T20:51:17.606Z,6.30
2019-01-05T20:53:59.758Z,9.50
2019-01-05T20:56:46.050Z,6.73
2019-01-05T20:59:21.851Z,9.83
2019-01-05T21:01:57.724Z,5.73
2019-01-05T21:04:30.248Z,5.63
2019-01-05T21:07:12.277Z,6.37
2019-01-05T21:10:00.601Z,9.33
2019-01-05T21:12:36.209Z,6.10
2019-01-05T21:15:19.157Z,6.60
2019-01-05T21:18:01.309Z,6.00
2019-01-05T21:20:47.478Z,5.07
2019-01-05T21:23:35.741Z,5.70
2019-01-05T21:26:08.274Z,6.37
2019-01-05T21:28:41.797Z,7.10
2019-01-05T21:31:14.431Z,5.17
2019-01-05T21:34:00.913Z,5.03
2019-01-05T21:36:43.070Z,7.23
2019-01-05T21:39:29.362Z,4.87
2019-01-05T21:42:11.506Z,6.03
2019-01-05T21:44:53.688Z,5.57
2019-01-05T21:47:23.566Z,5.10
2019-01-05T21:50:02.511Z,6.00
2019-01-05T21:52:49.026Z,9.23
2019-01-05T21:55:28.145Z,8.40
2019-01-05T21:58:13.874Z,5.50
2019-01-05T22:00:46.153Z,7.77
2019-01-05T22:03:34.425Z,5.03
2019-01-05T22:06:13.830Z,6.07
2019-01-05T22:08:43.713Z,7.07
2019-01-05T22:11:22.561Z,5.90
2019-01-05T22:13:52.445Z,10.30
2019-01-05T22:16:38.510Z,8.53
2019-01-05T22:19:23.699Z,8.30
2019-01-05T22:22:11.543Z,6.60
2019-01-05T22:24:56.522Z,5.80
2019-01-05T22:27:32.212Z,5.03
2019-01-05T22:30:07.917Z,7.33
2019-01-05T22:32:44.145Z,10.27
2019-01-05T22:35:14.037Z,8.13
2019-01-05T22:37:46.335Z,6.17
2019-01-05T22:40:25.022Z,6.83
2019-01-05T22:42:54.917Z,6.07
2019-01-05T22:45:24.795Z,9.30
2019-01-05T22:48:03.891Z,23.00
2019-01-05T22:50:50.385Z,18.97
2019-01-05T22:53:36.857Z,14.97
2019-01-05T22:56:07.026Z,15.53
2019-01-05T22:58:36.913Z,16.97
2019-01-05T23:01:06.785Z,13.37
2019-01-05T23:03:39.817Z,12.13
2019-01-05T23:06:18.946Z,14.90
2019-01-05T23:09:05.406Z,15.37
2019-01-05T23:11:35.282Z,14.50
2019-01-05T23:14:17.211Z,15.60
2019-01-05T23:17:03.385Z,8.80
2019-01-05T23:19:33.285Z,11.03
2019-01-05T23:22:03.154Z,12.00
2019-01-05T23:24:33.046Z,10.47
2019-01-05T23:27:03.018Z,11.97
2019-01-05T23:29:36.430Z,11.80
2019-01-05T23:32:12.053Z,10.40
2019-01-05T23:34:58.191Z,9.83
2019-01-05T23:37:43.342Z,16.00
2019-01-05T23:40:28.206Z,9.93
2019-01-05T23:43:14.507Z,10.93
2019-01-05T23:45:53.400Z,11.10
2019-01-05T23:48:29.478Z,10.63
2019-01-05T23:51:02.282Z,11.80
2019-01-05T23:53:48.461Z,8.80
2019-01-05T23:56:24.301Z,8.43
2019-01-05T23:58:57.142Z,11.67
